Terminal Aerodrome Forecast
Issued by NWS Charleston, WV

Current Version | Previous Version | Text Only | Print | Product List | Glossary Off
Versions: 1 2 3 4 5 6 7 8 9 10 11 12 13 14 15 16 17 18 19 20 21 22

000
FTUS41 KRLX 251457 AAA
TAFBKW
TAF AMD
KBKW 251457Z 2515/2612 VRB03KT P6SM SCT015
      TEMPO 2515/2516 BKN015
     FM251600 VRB03KT P6SM SCT025
     FM260200 13004KT P6SM BKN025
     FM260300 14004KT P6SM BKN015
     FM260900 15007KT 6SM BR BKN025=

USA.gov is the U.S. government's official web portal to all federal, state and local government web resources and services.